sensor_id;sensor_type;location;lat;lon;timestamp;P1;durP1;ratioP1;P2;durP2;ratioP2
16393;SDS011;8306;51.128;4.476;2022-11-21T00:03:47;5.47;;;1.50;;
16393;SDS011;8306;51.128;4.476;2022-11-21T00:06:14;3.20;;;1.10;;
16393;SDS011;8306;51.128;4.476;2022-11-21T00:08:40;4.17;;;1.50;;
16393;SDS011;8306;51.128;4.476;2022-11-21T00:11:07;3.43;;;1.57;;
16393;SDS011;8306;51.128;4.476;2022-11-21T00:13:34;3.03;;;1.20;;
16393;SDS011;8306;51.128;4.476;2022-11-21T00:16:07;3.93;;;1.33;;
16393;SDS011;8306;51.128;4.476;2022-11-21T00:18:33;6.57;;;1.73;;
16393;SDS011;8306;51.128;4.476;2022-11-21T00:21:05;4.60;;;1.70;;
16393;SDS011;8306;51.128;4.476;2022-11-21T00:23:31;6.50;;;1.70;;
16393;SDS011;8306;51.128;4.476;2022-11-21T00:25:58;5.23;;;1.60;;
16393;SDS011;8306;51.128;4.476;2022-11-21T00:28:24;4.47;;;1.70;;
16393;SDS011;8306;51.128;4.476;2022-11-21T00:30:51;5.13;;;1.60;;
16393;SDS011;8306;51.128;4.476;2022-11-21T00:33:17;4.50;;;1.60;;
16393;SDS011;8306;51.128;4.476;2022-11-21T00:35:44;3.97;;;1.70;;
16393;SDS011;8306;51.128;4.476;2022-11-21T00:38:10;4.93;;;1.63;;
16393;SDS011;8306;51.128;4.476;2022-11-21T00:40:37;2.93;;;1.90;;
16393;SDS011;8306;51.128;4.476;2022-11-21T00:43:03;4.33;;;1.70;;
16393;SDS011;8306;51.128;4.476;2022-11-21T00:45:30;3.47;;;1.50;;
16393;SDS011;8306;51.128;4.476;2022-11-21T00:47:56;3.97;;;2.10;;
16393;SDS011;8306;51.128;4.476;2022-11-21T00:50:23;5.43;;;2.13;;
16393;SDS011;8306;51.128;4.476;2022-11-21T00:52:53;5.97;;;2.10;;
16393;SDS011;8306;51.128;4.476;2022-11-21T00:55:16;9.63;;;2.23;;
16393;SDS011;8306;51.128;4.476;2022-11-21T00:57:42;4.87;;;2.50;;
16393;SDS011;8306;51.128;4.476;2022-11-21T01:00:09;5.77;;;2.60;;
16393;SDS011;8306;51.128;4.476;2022-11-21T01:02:35;7.83;;;2.73;;
16393;SDS011;8306;51.128;4.476;2022-11-21T01:05:02;5.00;;;2.67;;
16393;SDS011;8306;51.128;4.476;2022-11-21T01:07:28;5.80;;;3.10;;
16393;SDS011;8306;51.128;4.476;2022-11-21T01:09:55;4.43;;;2.37;;
16393;SDS011;8306;51.128;4.476;2022-11-21T01:12:21;4.57;;;2.67;;
16393;SDS011;8306;51.128;4.476;2022-11-21T01:14:48;3.93;;;2.10;;
16393;SDS011;8306;51.128;4.476;2022-11-21T01:17:14;5.43;;;2.10;;
16393;SDS011;8306;51.128;4.476;2022-11-21T01:19:41;5.83;;;1.80;;
16393;SDS011;8306;51.128;4.476;2022-11-21T01:22:07;6.47;;;1.80;;
16393;SDS011;8306;51.128;4.476;2022-11-21T01:24:33;4.27;;;2.13;;
16393;SDS011;8306;51.128;4.476;2022-11-21T01:27:00;4.23;;;1.87;;
16393;SDS011;8306;51.128;4.476;2022-11-21T01:29:26;4.73;;;2.03;;
16393;SDS011;8306;51.128;4.476;2022-11-21T01:31:53;5.50;;;2.17;;
16393;SDS011;8306;51.128;4.476;2022-11-21T01:34:19;4.93;;;2.07;;
16393;SDS011;8306;51.128;4.476;2022-11-21T01:36:46;7.00;;;1.87;;
16393;SDS011;8306;51.128;4.476;2022-11-21T01:39:12;7.70;;;2.27;;
16393;SDS011;8306;51.128;4.476;2022-11-21T01:41:40;5.13;;;1.90;;
16393;SDS011;8306;51.128;4.476;2022-11-21T01:44:22;7.03;;;2.47;;
16393;SDS011;8306;51.128;4.476;2022-11-21T01:46:48;3.67;;;2.10;;
16393;SDS011;8306;51.128;4.476;2022-11-21T01:49:17;3.67;;;2.23;;
16393;SDS011;8306;51.128;4.476;2022-11-21T01:51:48;4.53;;;2.43;;
16393;SDS011;8306;51.128;4.476;2022-11-21T01:57:22;4.63;;;2.30;;
16393;SDS011;8306;51.128;4.476;2022-11-21T02:02:29;5.27;;;2.40;;
16393;SDS011;8306;51.128;4.476;2022-11-21T02:04:55;4.23;;;2.50;;
16393;SDS011;8306;51.128;4.476;2022-11-21T02:07:21;5.00;;;2.27;;
16393;SDS011;8306;51.128;4.476;2022-11-21T02:09:50;3.63;;;1.90;;
16393;SDS011;8306;51.128;4.476;2022-11-21T02:12:19;4.93;;;2.20;;
16393;SDS011;8306;51.128;4.476;2022-11-21T02:14:43;4.87;;;1.93;;
16393;SDS011;8306;51.128;4.476;2022-11-21T02:17:10;4.53;;;2.20;;
16393;SDS011;8306;51.128;4.476;2022-11-21T02:27:38;4.40;;;2.20;;
16393;SDS011;8306;51.128;4.476;2022-11-21T02:30:05;8.73;;;3.07;;
16393;SDS011;8306;51.128;4.476;2022-11-21T02:32:32;5.60;;;2.97;;
16393;SDS011;8306;51.128;4.476;2022-11-21T02:34:57;4.50;;;2.87;;
16393;SDS011;8306;51.128;4.476;2022-11-21T02:37:24;9.00;;;3.67;;
16393;SDS011;8306;51.128;4.476;2022-11-21T02:39:50;7.23;;;3.23;;
16393;SDS011;8306;51.128;4.476;2022-11-21T02:42:25;6.07;;;2.90;;
16393;SDS011;8306;51.128;4.476;2022-11-21T02:45:13;7.73;;;3.50;;
16393;SDS011;8306;51.128;4.476;2022-11-21T02:47:34;5.53;;;3.60;;
16393;SDS011;8306;51.128;4.476;2022-11-21T02:52:32;5.67;;;3.10;;
16393;SDS011;8306;51.128;4.476;2022-11-21T02:54:58;7.10;;;3.00;;
16393;SDS011;8306;51.128;4.476;2022-11-21T02:57:25;6.17;;;3.17;;
16393;SDS011;8306;51.128;4.476;2022-11-21T02:59:51;4.57;;;2.50;;
16393;SDS011;8306;51.128;4.476;2022-11-21T03:02:18;5.27;;;2.30;;
16393;SDS011;8306;51.128;4.476;2022-11-21T03:04:44;4.63;;;2.37;;
16393;SDS011;8306;51.128;4.476;2022-11-21T03:07:11;4.27;;;2.00;;
16393;SDS011;8306;51.128;4.476;2022-11-21T03:09:37;4.60;;;2.43;;
16393;SDS011;8306;51.128;4.476;2022-11-21T03:12:07;6.07;;;2.70;;
16393;SDS011;8306;51.128;4.476;2022-11-21T03:14:30;3.83;;;2.23;;
16393;SDS011;8306;51.128;4.476;2022-11-21T03:16:57;5.13;;;2.33;;
16393;SDS011;8306;51.128;4.476;2022-11-21T03:19:23;3.53;;;2.20;;
16393;SDS011;8306;51.128;4.476;2022-11-21T03:21:50;5.70;;;2.47;;
16393;SDS011;8306;51.128;4.476;2022-11-21T03:24:16;7.63;;;2.87;;
16393;SDS011;8306;51.128;4.476;2022-11-21T03:26:42;7.30;;;2.60;;
16393;SDS011;8306;51.128;4.476;2022-11-21T03:29:09;4.67;;;2.43;;
16393;SDS011;8306;51.128;4.476;2022-11-21T03:31:35;5.53;;;2.83;;
16393;SDS011;8306;51.128;4.476;2022-11-21T03:34:02;5.27;;;2.27;;
16393;SDS011;8306;51.128;4.476;2022-11-21T03:36:28;4.37;;;2.97;;
16393;SDS011;8306;51.128;4.476;2022-11-21T03:38:55;5.57;;;2.60;;
16393;SDS011;8306;51.128;4.476;2022-11-21T03:41:22;4.43;;;2.53;;
16393;SDS011;8306;51.128;4.476;2022-11-21T03:43:54;7.53;;;3.17;;
16393;SDS011;8306;51.128;4.476;2022-11-21T03:46:20;6.33;;;2.30;;
16393;SDS011;8306;51.128;4.476;2022-11-21T03:48:46;5.27;;;2.27;;
16393;SDS011;8306;51.128;4.476;2022-11-21T03:51:13;5.60;;;2.40;;
16393;SDS011;8306;51.128;4.476;2022-11-21T03:53:39;6.23;;;2.67;;
16393;SDS011;8306;51.128;4.476;2022-11-21T03:56:06;5.37;;;2.70;;
16393;SDS011;8306;51.128;4.476;2022-11-21T03:58:32;4.47;;;2.47;;
16393;SDS011;8306;51.128;4.476;2022-11-21T04:00:59;6.33;;;2.40;;
16393;SDS011;8306;51.128;4.476;2022-11-21T04:03:25;4.00;;;2.00;;
16393;SDS011;8306;51.128;4.476;2022-11-21T04:05:52;8.00;;;2.60;;
16393;SDS011;8306;51.128;4.476;2022-11-21T04:08:18;4.37;;;2.20;;
16393;SDS011;8306;51.128;4.476;2022-11-21T04:10:51;5.30;;;2.97;;
16393;SDS011;8306;51.128;4.476;2022-11-21T04:13:17;8.37;;;2.47;;
16393;SDS011;8306;51.128;4.476;2022-11-21T04:15:44;3.47;;;2.13;;
16393;SDS011;8306;51.128;4.476;2022-11-21T04:18:10;5.30;;;2.40;;
16393;SDS011;8306;51.128;4.476;2022-11-21T04:20:37;2.47;;;1.63;;
16393;SDS011;8306;51.128;4.476;2022-11-21T04:23:03;3.47;;;1.97;;
16393;SDS011;8306;51.128;4.476;2022-11-21T04:25:30;4.33;;;2.10;;
16393;SDS011;8306;51.128;4.476;2022-11-21T04:27:56;5.23;;;2.10;;
16393;SDS011;8306;51.128;4.476;2022-11-21T04:30:23;5.33;;;1.87;;
16393;SDS011;8306;51.128;4.476;2022-11-21T04:32:52;4.27;;;1.90;;
16393;SDS011;8306;51.128;4.476;2022-11-21T04:35:19;4.83;;;2.10;;
16393;SDS011;8306;51.128;4.476;2022-11-21T04:37:45;4.03;;;2.20;;
16393;SDS011;8306;51.128;4.476;2022-11-21T04:40:11;5.07;;;2.30;;
16393;SDS011;8306;51.128;4.476;2022-11-21T04:42:41;4.20;;;2.07;;
16393;SDS011;8306;51.128;4.476;2022-11-21T04:45:10;3.90;;;1.80;;
16393;SDS011;8306;51.128;4.476;2022-11-21T04:47:37;3.27;;;2.27;;
16393;SDS011;8306;51.128;4.476;2022-11-21T04:50:03;4.90;;;2.00;;
16393;SDS011;8306;51.128;4.476;2022-11-21T04:52:29;3.97;;;1.60;;
16393;SDS011;8306;51.128;4.476;2022-11-21T04:54:56;5.13;;;2.03;;
16393;SDS011;8306;51.128;4.476;2022-11-21T04:57:22;4.50;;;1.80;;
16393;SDS011;8306;51.128;4.476;2022-11-21T04:59:49;3.37;;;1.90;;
16393;SDS011;8306;51.128;4.476;2022-11-21T05:02:15;8.93;;;1.90;;
16393;SDS011;8306;51.128;4.476;2022-11-21T05:04:42;5.37;;;1.77;;
16393;SDS011;8306;51.128;4.476;2022-11-21T05:07:08;3.27;;;1.50;;
16393;SDS011;8306;51.128;4.476;2022-11-21T05:09:35;5.53;;;1.97;;
16393;SDS011;8306;51.128;4.476;2022-11-21T05:12:01;4.47;;;2.20;;
16393;SDS011;8306;51.128;4.476;2022-11-21T05:14:45;5.07;;;1.70;;
16393;SDS011;8306;51.128;4.476;2022-11-21T05:17:12;5.40;;;2.17;;
16393;SDS011;8306;51.128;4.476;2022-11-21T05:19:38;5.70;;;1.90;;
16393;SDS011;8306;51.128;4.476;2022-11-21T05:22:05;5.60;;;3.20;;
16393;SDS011;8306;51.128;4.476;2022-11-21T05:24:31;4.40;;;3.07;;
16393;SDS011;8306;51.128;4.476;2022-11-21T05:26:58;4.07;;;2.80;;
16393;SDS011;8306;51.128;4.476;2022-11-21T05:29:24;7.93;;;4.27;;
16393;SDS011;8306;51.128;4.476;2022-11-21T05:31:51;9.53;;;5.70;;
16393;SDS011;8306;51.128;4.476;2022-11-21T05:34:17;5.70;;;4.93;;
16393;SDS011;8306;51.128;4.476;2022-11-21T05:36:44;8.17;;;3.37;;
16393;SDS011;8306;51.128;4.476;2022-11-21T05:39:10;5.27;;;2.50;;
16393;SDS011;8306;51.128;4.476;2022-11-21T05:41:37;5.43;;;2.60;;
16393;SDS011;8306;51.128;4.476;2022-11-21T05:44:03;5.13;;;2.10;;
16393;SDS011;8306;51.128;4.476;2022-11-21T05:46:30;6.83;;;2.50;;
16393;SDS011;8306;51.128;4.476;2022-11-21T05:48:56;6.50;;;2.30;;
16393;SDS011;8306;51.128;4.476;2022-11-21T05:51:23;3.90;;;2.40;;
16393;SDS011;8306;51.128;4.476;2022-11-21T05:53:49;5.00;;;2.27;;
16393;SDS011;8306;51.128;4.476;2022-11-21T05:56:16;5.83;;;2.30;;
16393;SDS011;8306;51.128;4.476;2022-11-21T05:58:42;2.67;;;2.17;;
16393;SDS011;8306;51.128;4.476;2022-11-21T06:01:09;5.73;;;2.80;;
16393;SDS011;8306;51.128;4.476;2022-11-21T06:03:38;7.80;;;2.40;;
16393;SDS011;8306;51.128;4.476;2022-11-21T06:08:32;5.03;;;2.80;;
16393;SDS011;8306;51.128;4.476;2022-11-21T06:11:00;7.37;;;2.97;;
16393;SDS011;8306;51.128;4.476;2022-11-21T06:13:26;3.40;;;2.70;;
16393;SDS011;8306;51.128;4.476;2022-11-21T06:15:53;5.97;;;3.63;;
16393;SDS011;8306;51.128;4.476;2022-11-21T06:18:25;4.80;;;2.90;;
16393;SDS011;8306;51.128;4.476;2022-11-21T06:20:51;4.90;;;2.67;;
16393;SDS011;8306;51.128;4.476;2022-11-21T06:23:17;7.63;;;2.83;;
16393;SDS011;8306;51.128;4.476;2022-11-21T06:25:44;6.80;;;2.97;;
16393;SDS011;8306;51.128;4.476;2022-11-21T06:28:10;5.90;;;2.77;;
16393;SDS011;8306;51.128;4.476;2022-11-21T06:30:37;4.60;;;2.43;;
16393;SDS011;8306;51.128;4.476;2022-11-21T06:33:04;8.43;;;7.23;;
16393;SDS011;8306;51.128;4.476;2022-11-21T06:35:30;3.13;;;2.70;;
16393;SDS011;8306;51.128;4.476;2022-11-21T06:37:56;3.93;;;2.50;;
16393;SDS011;8306;51.128;4.476;2022-11-21T06:40:23;5.53;;;2.40;;
16393;SDS011;8306;51.128;4.476;2022-11-21T06:42:49;6.50;;;2.87;;
16393;SDS011;8306;51.128;4.476;2022-11-21T06:45:16;4.60;;;2.63;;
16393;SDS011;8306;51.128;4.476;2022-11-21T06:47:42;5.43;;;2.20;;
16393;SDS011;8306;51.128;4.476;2022-11-21T06:50:09;6.20;;;2.20;;
16393;SDS011;8306;51.128;4.476;2022-11-21T06:52:35;3.10;;;2.50;;
16393;SDS011;8306;51.128;4.476;2022-11-21T06:55:02;6.57;;;2.43;;
16393;SDS011;8306;51.128;4.476;2022-11-21T06:57:28;6.30;;;2.70;;
16393;SDS011;8306;51.128;4.476;2022-11-21T06:59:55;4.47;;;2.90;;
16393;SDS011;8306;51.128;4.476;2022-11-21T07:02:21;4.67;;;3.43;;
16393;SDS011;8306;51.128;4.476;2022-11-21T07:04:48;5.77;;;3.67;;
16393;SDS011;8306;51.128;4.476;2022-11-21T07:07:14;5.47;;;3.37;;
16393;SDS011;8306;51.128;4.476;2022-11-21T07:09:41;8.13;;;3.43;;
16393;SDS011;8306;51.128;4.476;2022-11-21T07:12:07;4.83;;;3.30;;
16393;SDS011;8306;51.128;4.476;2022-11-21T07:14:52;7.30;;;5.13;;
16393;SDS011;8306;51.128;4.476;2022-11-21T07:17:18;5.53;;;2.90;;
16393;SDS011;8306;51.128;4.476;2022-11-21T07:19:45;3.53;;;2.57;;
16393;SDS011;8306;51.128;4.476;2022-11-21T07:22:11;6.00;;;3.63;;
16393;SDS011;8306;51.128;4.476;2022-11-21T07:24:37;4.93;;;2.63;;
16393;SDS011;8306;51.128;4.476;2022-11-21T07:27:04;6.60;;;2.67;;
16393;SDS011;8306;51.128;4.476;2022-11-21T07:29:30;7.73;;;5.80;;
16393;SDS011;8306;51.128;4.476;2022-11-21T07:31:57;6.27;;;4.73;;
16393;SDS011;8306;51.128;4.476;2022-11-21T07:34:23;6.60;;;3.80;;
16393;SDS011;8306;51.128;4.476;2022-11-21T07:36:50;5.47;;;3.13;;
16393;SDS011;8306;51.128;4.476;2022-11-21T07:39:16;7.33;;;4.30;;
16393;SDS011;8306;51.128;4.476;2022-11-21T07:41:43;5.10;;;3.07;;
16393;SDS011;8306;51.128;4.476;2022-11-21T07:44:09;4.23;;;3.17;;
16393;SDS011;8306;51.128;4.476;2022-11-21T07:46:36;6.77;;;3.20;;
16393;SDS011;8306;51.128;4.476;2022-11-21T07:49:02;3.30;;;2.70;;
16393;SDS011;8306;51.128;4.476;2022-11-21T07:51:29;4.83;;;3.60;;
16393;SDS011;8306;51.128;4.476;2022-11-21T07:53:55;6.67;;;4.00;;
16393;SDS011;8306;51.128;4.476;2022-11-21T07:56:22;5.33;;;4.60;;
16393;SDS011;8306;51.128;4.476;2022-11-21T07:58:50;7.17;;;5.87;;
16393;SDS011;8306;51.128;4.476;2022-11-21T08:01:15;12.83;;;7.50;;
16393;SDS011;8306;51.128;4.476;2022-11-21T08:03:41;7.87;;;3.03;;
16393;SDS011;8306;51.128;4.476;2022-11-21T08:06:08;4.23;;;3.57;;
16393;SDS011;8306;51.128;4.476;2022-11-21T08:08:34;8.03;;;4.30;;
16393;SDS011;8306;51.128;4.476;2022-11-21T08:11:03;4.87;;;3.20;;
16393;SDS011;8306;51.128;4.476;2022-11-21T08:13:27;8.17;;;6.67;;
16393;SDS011;8306;51.128;4.476;2022-11-21T08:15:53;8.70;;;5.80;;
16393;SDS011;8306;51.128;4.476;2022-11-21T08:18:20;8.27;;;5.07;;
16393;SDS011;8306;51.128;4.476;2022-11-21T08:20:46;7.90;;;6.23;;
16393;SDS011;8306;51.128;4.476;2022-11-21T08:23:13;7.30;;;6.03;;
16393;SDS011;8306;51.128;4.476;2022-11-21T08:25:40;9.90;;;6.73;;
16393;SDS011;8306;51.128;4.476;2022-11-21T08:28:06;7.50;;;5.00;;
16393;SDS011;8306;51.128;4.476;2022-11-21T08:30:33;4.70;;;4.03;;
16393;SDS011;8306;51.128;4.476;2022-11-21T08:32:59;7.67;;;6.10;;
16393;SDS011;8306;51.128;4.476;2022-11-21T08:35:26;8.57;;;5.50;;
16393;SDS011;8306;51.128;4.476;2022-11-21T08:37:58;11.63;;;4.60;;
16393;SDS011;8306;51.128;4.476;2022-11-21T08:40:22;4.53;;;3.30;;
16393;SDS011;8306;51.128;4.476;2022-11-21T08:42:54;6.40;;;4.60;;
16393;SDS011;8306;51.128;4.476;2022-11-21T08:45:14;6.50;;;3.70;;
16393;SDS011;8306;51.128;4.476;2022-11-21T08:47:41;6.53;;;3.60;;
16393;SDS011;8306;51.128;4.476;2022-11-21T08:50:07;5.47;;;3.30;;
16393;SDS011;8306;51.128;4.476;2022-11-21T08:52:34;7.93;;;4.33;;
16393;SDS011;8306;51.128;4.476;2022-11-21T08:55:00;6.50;;;3.73;;
16393;SDS011;8306;51.128;4.476;2022-11-21T08:57:27;5.03;;;3.83;;
16393;SDS011;8306;51.128;4.476;2022-11-21T08:59:53;5.03;;;3.13;;
16393;SDS011;8306;51.128;4.476;2022-11-21T09:02:20;4.87;;;2.80;;
16393;SDS011;8306;51.128;4.476;2022-11-21T09:04:46;8.20;;;3.97;;
16393;SDS011;8306;51.128;4.476;2022-11-21T09:07:13;12.50;;;11.40;;
16393;SDS011;8306;51.128;4.476;2022-11-21T09:09:39;12.73;;;9.43;;
16393;SDS011;8306;51.128;4.476;2022-11-21T09:12:06;9.67;;;6.03;;
16393;SDS011;8306;51.128;4.476;2022-11-21T09:14:32;9.87;;;5.33;;
16393;SDS011;8306;51.128;4.476;2022-11-21T09:17:17;7.53;;;3.70;;
16393;SDS011;8306;51.128;4.476;2022-11-21T09:20:01;5.67;;;3.93;;
16393;SDS011;8306;51.128;4.476;2022-11-21T09:22:28;5.70;;;4.10;;
16393;SDS011;8306;51.128;4.476;2022-11-21T09:24:54;6.53;;;4.00;;
16393;SDS011;8306;51.128;4.476;2022-11-21T09:27:21;5.03;;;3.83;;
16393;SDS011;8306;51.128;4.476;2022-11-21T09:29:47;6.03;;;4.77;;
16393;SDS011;8306;51.128;4.476;2022-11-21T09:32:14;7.17;;;3.50;;
16393;SDS011;8306;51.128;4.476;2022-11-21T09:34:40;6.60;;;4.10;;
16393;SDS011;8306;51.128;4.476;2022-11-21T09:37:07;11.90;;;4.60;;
16393;SDS011;8306;51.128;4.476;2022-11-21T09:39:33;5.93;;;4.37;;
16393;SDS011;8306;51.128;4.476;2022-11-21T09:42:02;4.97;;;4.20;;
16393;SDS011;8306;51.128;4.476;2022-11-21T09:46:54;5.70;;;3.73;;
16393;SDS011;8306;51.128;4.476;2022-11-21T09:49:19;9.03;;;5.40;;
16393;SDS011;8306;51.128;4.476;2022-11-21T09:51:46;6.00;;;4.70;;
16393;SDS011;8306;51.128;4.476;2022-11-21T09:56:45;9.27;;;4.73;;
16393;SDS011;8306;51.128;4.476;2022-11-21T10:01:46;12.93;;;11.57;;
16393;SDS011;8306;51.128;4.476;2022-11-21T10:04:13;10.53;;;5.77;;
16393;SDS011;8306;51.128;4.476;2022-11-21T10:06:51;5.80;;;3.97;;
16393;SDS011;8306;51.128;4.476;2022-11-21T10:09:37;9.93;;;4.93;;
16393;SDS011;8306;51.128;4.476;2022-11-21T10:15:05;6.93;;;4.27;;
16393;SDS011;8306;51.128;4.476;2022-11-21T10:17:49;6.00;;;3.83;;
16393;SDS011;8306;51.128;4.476;2022-11-21T10:20:30;7.10;;;3.87;;
16393;SDS011;8306;51.128;4.476;2022-11-21T10:23:15;8.90;;;3.63;;
16393;SDS011;8306;51.128;4.476;2022-11-21T10:25:54;6.50;;;4.00;;
16393;SDS011;8306;51.128;4.476;2022-11-21T10:28:15;5.27;;;3.67;;
16393;SDS011;8306;51.128;4.476;2022-11-21T10:30:42;4.40;;;3.77;;
16393;SDS011;8306;51.128;4.476;2022-11-21T10:33:12;5.30;;;3.23;;
16393;SDS011;8306;51.128;4.476;2022-11-21T10:35:40;9.03;;;3.87;;
16393;SDS011;8306;51.128;4.476;2022-11-21T10:38:13;7.17;;;4.90;;
16393;SDS011;8306;51.128;4.476;2022-11-21T10:40:37;6.00;;;4.20;;
16393;SDS011;8306;51.128;4.476;2022-11-21T10:43:16;7.37;;;3.70;;
16393;SDS011;8306;51.128;4.476;2022-11-21T10:45:53;4.90;;;2.53;;
16393;SDS011;8306;51.128;4.476;2022-11-21T10:48:20;4.03;;;2.53;;
16393;SDS011;8306;51.128;4.476;2022-11-21T10:53:25;6.73;;;3.70;;
16393;SDS011;8306;51.128;4.476;2022-11-21T10:58:42;3.80;;;2.30;;
16393;SDS011;8306;51.128;4.476;2022-11-21T11:01:29;6.43;;;3.37;;
16393;SDS011;8306;51.128;4.476;2022-11-21T11:04:05;6.17;;;4.30;;
16393;SDS011;8306;51.128;4.476;2022-11-21T11:06:31;5.47;;;3.00;;
16393;SDS011;8306;51.128;4.476;2022-11-21T11:08:57;9.60;;;4.17;;
16393;SDS011;8306;51.128;4.476;2022-11-21T11:11:24;6.30;;;4.57;;
16393;SDS011;8306;51.128;4.476;2022-11-21T11:13:57;5.30;;;3.53;;
16393;SDS011;8306;51.128;4.476;2022-11-21T11:16:25;5.93;;;4.50;;
16393;SDS011;8306;51.128;4.476;2022-11-21T11:18:56;7.77;;;4.17;;
16393;SDS011;8306;51.128;4.476;2022-11-21T11:21:30;6.33;;;3.43;;
16393;SDS011;8306;51.128;4.476;2022-11-21T11:24:42;6.67;;;3.40;;
16393;SDS011;8306;51.128;4.476;2022-11-21T11:26:24;5.20;;;3.17;;
16393;SDS011;8306;51.128;4.476;2022-11-21T11:28:52;5.13;;;3.63;;
16393;SDS011;8306;51.128;4.476;2022-11-21T11:31:18;5.60;;;3.50;;
16393;SDS011;8306;51.128;4.476;2022-11-21T11:36:28;7.90;;;4.73;;
16393;SDS011;8306;51.128;4.476;2022-11-21T11:38:58;8.70;;;4.27;;
16393;SDS011;8306;51.128;4.476;2022-11-21T11:47:33;10.53;;;4.40;;
16393;SDS011;8306;51.128;4.476;2022-11-21T11:50:01;5.63;;;3.90;;
16393;SDS011;8306;51.128;4.476;2022-11-21T11:55:40;5.43;;;3.33;;
16393;SDS011;8306;51.128;4.476;2022-11-21T11:58:15;7.03;;;3.90;;
16393;SDS011;8306;51.128;4.476;2022-11-21T12:00:44;5.67;;;3.77;;
16393;SDS011;8306;51.128;4.476;2022-11-21T12:06:11;5.13;;;3.80;;
16393;SDS011;8306;51.128;4.476;2022-11-21T12:08:38;5.87;;;3.67;;
16393;SDS011;8306;51.128;4.476;2022-11-21T12:11:26;4.43;;;3.73;;
16393;SDS011;8306;51.128;4.476;2022-11-21T12:15:09;10.00;;;7.53;;
16393;SDS011;8306;51.128;4.476;2022-11-21T12:16:41;5.20;;;4.73;;
16393;SDS011;8306;51.128;4.476;2022-11-21T12:19:10;4.83;;;4.30;;
16393;SDS011;8306;51.128;4.476;2022-11-21T12:21:34;4.53;;;3.80;;
16393;SDS011;8306;51.128;4.476;2022-11-21T12:24:01;6.73;;;3.70;;
16393;SDS011;8306;51.128;4.476;2022-11-21T12:32:18;6.27;;;4.30;;
16393;SDS011;8306;51.128;4.476;2022-11-21T12:43:11;5.67;;;3.67;;
16393;SDS011;8306;51.128;4.476;2022-11-21T12:46:01;4.47;;;3.60;;
16393;SDS011;8306;51.128;4.476;2022-11-21T12:48:35;5.67;;;3.50;;
16393;SDS011;8306;51.128;4.476;2022-11-21T12:56:58;5.00;;;3.60;;
16393;SDS011;8306;51.128;4.476;2022-11-21T12:59:23;8.00;;;5.43;;
16393;SDS011;8306;51.128;4.476;2022-11-21T13:02:04;8.77;;;6.53;;
16393;SDS011;8306;51.128;4.476;2022-11-21T13:04:46;6.43;;;3.77;;
16393;SDS011;8306;51.128;4.476;2022-11-21T13:07:12;5.77;;;3.43;;
16393;SDS011;8306;51.128;4.476;2022-11-21T13:09:39;5.43;;;3.50;;
16393;SDS011;8306;51.128;4.476;2022-11-21T13:12:29;6.23;;;4.20;;
16393;SDS011;8306;51.128;4.476;2022-11-21T13:14:56;7.77;;;4.67;;
16393;SDS011;8306;51.128;4.476;2022-11-21T13:19:59;7.37;;;5.60;;
16393;SDS011;8306;51.128;4.476;2022-11-21T13:27:43;6.60;;;4.87;;
16393;SDS011;8306;51.128;4.476;2022-11-21T13:32:36;5.77;;;3.60;;
16393;SDS011;8306;51.128;4.476;2022-11-21T13:45:40;5.03;;;3.30;;
16393;SDS011;8306;51.128;4.476;2022-11-21T13:48:29;8.30;;;3.43;;
16393;SDS011;8306;51.128;4.476;2022-11-21T13:50:59;7.43;;;3.50;;
16393;SDS011;8306;51.128;4.476;2022-11-21T13:58:41;4.43;;;3.07;;
16393;SDS011;8306;51.128;4.476;2022-11-21T14:11:53;6.77;;;5.70;;
16393;SDS011;8306;51.128;4.476;2022-11-21T14:14:37;7.13;;;3.83;;
16393;SDS011;8306;51.128;4.476;2022-11-21T14:18:01;4.00;;;3.53;;
16393;SDS011;8306;51.128;4.476;2022-11-21T14:19:53;5.93;;;3.50;;
16393;SDS011;8306;51.128;4.476;2022-11-21T14:22:39;7.93;;;4.93;;
16393;SDS011;8306;51.128;4.476;2022-11-21T14:25:08;7.90;;;4.53;;
16393;SDS011;8306;51.128;4.476;2022-11-21T14:27:35;8.67;;;4.00;;
16393;SDS011;8306;51.128;4.476;2022-11-21T14:30:00;9.27;;;3.87;;
16393;SDS011;8306;51.128;4.476;2022-11-21T14:32:27;5.27;;;3.43;;
16393;SDS011;8306;51.128;4.476;2022-11-21T14:35:39;5.80;;;3.87;;
16393;SDS011;8306;51.128;4.476;2022-11-21T14:37:38;6.70;;;3.43;;
16393;SDS011;8306;51.128;4.476;2022-11-21T14:40:04;8.13;;;3.47;;
16393;SDS011;8306;51.128;4.476;2022-11-21T14:42:34;5.67;;;3.50;;
16393;SDS011;8306;51.128;4.476;2022-11-21T14:45:07;10.47;;;4.30;;
16393;SDS011;8306;51.128;4.476;2022-11-21T14:47:44;5.63;;;3.40;;
16393;SDS011;8306;51.128;4.476;2022-11-21T14:50:20;6.97;;;3.27;;
16393;SDS011;8306;51.128;4.476;2022-11-21T14:52:32;5.13;;;3.63;;
16393;SDS011;8306;51.128;4.476;2022-11-21T14:55:02;5.87;;;2.70;;
16393;SDS011;8306;51.128;4.476;2022-11-21T14:57:37;5.80;;;3.10;;
16393;SDS011;8306;51.128;4.476;2022-11-21T15:00:03;4.07;;;3.00;;
16393;SDS011;8306;51.128;4.476;2022-11-21T15:02:29;4.50;;;3.13;;
16393;SDS011;8306;51.128;4.476;2022-11-21T15:04:59;5.73;;;3.13;;
16393;SDS011;8306;51.128;4.476;2022-11-21T15:07:22;4.30;;;2.57;;
16393;SDS011;8306;51.128;4.476;2022-11-21T15:09:51;8.03;;;2.90;;
16393;SDS011;8306;51.128;4.476;2022-11-21T15:12:22;8.70;;;3.03;;
16393;SDS011;8306;51.128;4.476;2022-11-21T15:14:57;4.30;;;2.97;;
16393;SDS011;8306;51.128;4.476;2022-11-21T15:17:21;4.70;;;2.40;;
16393;SDS011;8306;51.128;4.476;2022-11-21T15:20:01;5.40;;;3.63;;
16393;SDS011;8306;51.128;4.476;2022-11-21T15:22:19;4.50;;;3.30;;
16393;SDS011;8306;51.128;4.476;2022-11-21T15:24:44;6.23;;;3.17;;
16393;SDS011;8306;51.128;4.476;2022-11-21T15:30:05;5.80;;;2.83;;
16393;SDS011;8306;51.128;4.476;2022-11-21T15:35:28;5.50;;;2.13;;
16393;SDS011;8306;51.128;4.476;2022-11-21T15:46:14;4.93;;;2.43;;
16393;SDS011;8306;51.128;4.476;2022-11-21T15:48:39;6.80;;;2.30;;
16393;SDS011;8306;51.128;4.476;2022-11-21T15:51:07;5.73;;;2.30;;
16393;SDS011;8306;51.128;4.476;2022-11-21T15:53:32;3.40;;;2.00;;
16393;SDS011;8306;51.128;4.476;2022-11-21T15:55:58;5.23;;;2.27;;
16393;SDS011;8306;51.128;4.476;2022-11-21T15:58:25;5.10;;;2.17;;
16393;SDS011;8306;51.128;4.476;2022-11-21T16:00:51;4.40;;;2.23;;
16393;SDS011;8306;51.128;4.476;2022-11-21T16:03:18;4.40;;;2.00;;
16393;SDS011;8306;51.128;4.476;2022-11-21T16:05:44;5.53;;;2.63;;
16393;SDS011;8306;51.128;4.476;2022-11-21T16:08:11;4.10;;;2.37;;
16393;SDS011;8306;51.128;4.476;2022-11-21T16:10:37;4.90;;;2.47;;
16393;SDS011;8306;51.128;4.476;2022-11-21T16:13:04;3.73;;;2.10;;
16393;SDS011;8306;51.128;4.476;2022-11-21T16:15:30;4.60;;;2.37;;
16393;SDS011;8306;51.128;4.476;2022-11-21T16:17:57;4.63;;;2.33;;
16393;SDS011;8306;51.128;4.476;2022-11-21T16:20:23;4.23;;;2.47;;
16393;SDS011;8306;51.128;4.476;2022-11-21T16:22:50;4.00;;;2.33;;
16393;SDS011;8306;51.128;4.476;2022-11-21T16:25:16;4.57;;;2.40;;
16393;SDS011;8306;51.128;4.476;2022-11-21T16:27:43;5.60;;;3.23;;
16393;SDS011;8306;51.128;4.476;2022-11-21T16:30:09;5.20;;;2.50;;
16393;SDS011;8306;51.128;4.476;2022-11-21T16:32:36;7.57;;;2.80;;
16393;SDS011;8306;51.128;4.476;2022-11-21T16:35:02;4.83;;;2.70;;
16393;SDS011;8306;51.128;4.476;2022-11-21T16:37:31;6.83;;;6.00;;
16393;SDS011;8306;51.128;4.476;2022-11-21T16:39:58;6.30;;;5.43;;
16393;SDS011;8306;51.128;4.476;2022-11-21T16:42:24;5.77;;;3.00;;
16393;SDS011;8306;51.128;4.476;2022-11-21T16:44:51;5.10;;;2.70;;
16393;SDS011;8306;51.128;4.476;2022-11-21T16:47:17;6.03;;;2.80;;
16393;SDS011;8306;51.128;4.476;2022-11-21T16:49:45;5.67;;;3.40;;
16393;SDS011;8306;51.128;4.476;2022-11-21T16:52:10;4.77;;;3.17;;
16393;SDS011;8306;51.128;4.476;2022-11-21T16:54:36;4.77;;;2.50;;
16393;SDS011;8306;51.128;4.476;2022-11-21T16:57:03;5.33;;;3.17;;
16393;SDS011;8306;51.128;4.476;2022-11-21T16:59:30;6.07;;;3.10;;
16393;SDS011;8306;51.128;4.476;2022-11-21T17:01:56;4.07;;;2.70;;
16393;SDS011;8306;51.128;4.476;2022-11-21T17:04:22;2.90;;;2.23;;
16393;SDS011;8306;51.128;4.476;2022-11-21T17:06:49;6.20;;;3.17;;
16393;SDS011;8306;51.128;4.476;2022-11-21T17:09:15;8.23;;;3.03;;